Time;durP1;ratioP1;P1;durP2;ratioP2;P2;SDS_P1;SDS_P2;PMS_P1;PMS_P2;Temp;Humidity;BMP_temperature;BMP_pressure;BME280_temperature;BME280_humidity;BME280_pressure;Samples;Min_cycle;Max_cycle;Signal;HPM_P1;HPM_P2
2021/03/08 00:00:34;;;;;;;16.17;13.00;;;;;;;2.90;65.64;99023.89;1761319;81;22301;-58
2021/03/08 00:03:04;;;;;;;15.98;11.68;;;;;;;2.90;65.66;99021.23;1780108;80;21082;-58
2021/03/08 00:05:32;;;;;;;13.22;11.05;;;;;;;2.90;65.70;99014.59;1761098;81;20997;-60
2021/03/08 00:08:01;;;;;;;17.00;11.28;;;;;;;2.89;65.72;99028.38;1779932;80;21177;-60
2021/03/08 00:10:28;;;;;;;16.02;12.95;;;;;;;2.90;65.65;99015.92;1756104;81;21375;-61
2021/03/08 00:12:56;;;;;;;13.10;10.80;;;;;;;2.86;65.75;99008.09;1747522;80;21162;-60
2021/03/08 00:15:24;;;;;;;14.07;11.05;;;;;;;2.85;65.80;99000.64;1723237;82;21052;-61
2021/03/08 00:17:52;;;;;;;17.27;11.45;;;;;;;2.82;65.81;99010.37;1746419;82;21606;-61
2021/03/08 00:20:22;;;;;;;18.90;12.93;;;;;;;2.82;65.91;98994.95;1746356;82;21173;-60
2021/03/08 00:22:50;;;;;;;14.35;11.25;;;;;;;2.81;65.95;98995.47;1752098;80;21136;-61
2021/03/08 00:25:24;;;;;;;14.73;10.38;;;;;;;2.83;65.99;99013.31;1753177;80;21177;-60
2021/03/08 00:27:52;;;;;;;14.20;11.75;;;;;;;2.83;65.93;98993.39;1776550;80;21003;-60
2021/03/08 00:30:23;;;;;;;13.55;11.33;;;;;;;2.84;65.93;98997.68;1777093;80;21030;-63
2021/03/08 00:32:51;;;;;;;12.78;10.20;;;;;;;2.84;65.99;98982.26;1775517;80;21142;-61
2021/03/08 00:35:21;;;;;;;11.12;9.80;;;;;;;2.84;66.02;98976.95;1776165;80;23482;-60
2021/03/08 00:37:50;;;;;;;14.30;11.45;;;;;;;2.84;66.09;98983.59;1777232;80;21575;-61
2021/03/08 00:40:21;;;;;;;14.30;10.28;;;;;;;2.84;66.11;98974.30;1777133;80;21161;-60
2021/03/08 00:42:50;;;;;;;11.68;10.55;;;;;;;2.83;66.11;98962.86;1776917;80;21168;-62
2021/03/08 00:45:20;;;;;;;14.73;11.08;;;;;;;2.82;66.16;98967.89;1763612;80;21654;-60
2021/03/08 00:47:50;;;;;;;14.45;10.00;;;;;;;2.80;66.22;98965.95;1745718;82;21207;-61
2021/03/08 00:50:28;;;;;;;12.47;10.08;;;;;;;2.81;66.23;98970.75;1746425;80;21160;-61
2021/03/08 00:52:56;;;;;;;18.55;13.38;;;;;;;2.81;66.22;98965.45;1730702;82;21135;-62
2021/03/08 00:55:26;;;;;;;23.95;11.05;;;;;;;2.79;66.26;98966.16;1759636;80;21017;-61
2021/03/08 00:57:54;;;;;;;15.03;11.43;;;;;;;2.77;66.33;98950.47;1746319;82;21176;-61
2021/03/08 01:00:25;;;;;;;13.13;10.55;;;;;;;2.76;66.31;98966.09;1771762;80;21364;-60
2021/03/08 01:02:53;;;;;;;14.23;10.13;;;;;;;2.77;66.35;98954.97;1777241;80;21078;-62
2021/03/08 01:05:23;;;;;;;12.43;10.48;;;;;;;2.77;66.36;98950.98;1777134;80;21536;-60
2021/03/08 01:07:52;;;;;;;12.10;8.95;;;;;;;2.75;66.38;98953.03;1762498;80;21164;-59
2021/03/08 01:10:26;;;;;;;10.78;9.68;;;;;;;2.78;66.42;98957.92;1770098;80;21169;-61
2021/03/08 01:12:54;;;;;;;14.18;9.13;;;;;;;2.77;66.41;98939.04;1777883;80;21421;-62
2021/03/08 01:15:22;;;;;;;12.73;11.43;;;;;;;2.77;66.39;98967.73;1784251;80;21153;-61
2021/03/08 01:17:51;;;;;;;14.95;12.35;;;;;;;2.76;66.41;98937.41;1784298;80;21172;-60
2021/03/08 01:20:20;;;;;;;14.13;12.37;;;;;;;2.77;66.46;98927.09;1784100;80;21141;-60
2021/03/08 01:22:48;;;;;;;15.30;10.23;;;;;;;2.80;66.45;98950.53;1784428;80;22316;-61
2021/03/08 01:25:28;;;;;;;11.95;9.73;;;;;;;2.79;66.49;98935.63;1784285;80;21197;-60
2021/03/08 01:27:56;;;;;;;13.03;10.30;;;;;;;2.79;66.51;98928.48;1760736;80;21055;-61
2021/03/08 01:30:29;;;;;;;12.98;9.63;;;;;;;2.78;66.58;98935.36;1727819;82;21014;-62
2021/03/08 01:32:58;;;;;;;12.82;11.53;;;;;;;2.76;66.66;98921.48;1749792;81;21565;-61
2021/03/08 01:35:26;;;;;;;12.80;10.43;;;;;;;2.77;66.73;98928.41;1720382;82;21166;-61
2021/03/08 01:37:54;;;;;;;13.45;9.60;;;;;;;2.78;66.81;98938.02;1702047;84;21500;-61
2021/03/08 01:40:24;;;;;;;11.85;10.38;;;;;;;2.77;66.88;98927.09;1716375;82;21202;-60
2021/03/08 01:42:52;;;;;;;12.37;10.98;;;;;;;2.78;66.83;98923.41;1733348;82;21653;-60
2021/03/08 01:45:21;;;;;;;13.93;11.00;;;;;;;2.76;66.95;98927.60;1731483;82;21188;-61
2021/03/08 01:47:49;;;;;;;12.70;10.55;;;;;;;2.76;66.96;98925.45;1731586;82;21216;-60
2021/03/08 01:50:25;;;;;;;11.93;10.50;;;;;;;2.72;67.10;98925.60;1725369;82;21591;-62
2021/03/08 01:52:52;;;;;;;11.60;9.68;;;;;;;2.72;67.12;98921.62;1732553;82;21150;-62
2021/03/08 01:55:20;;;;;;;16.20;12.37;;;;;;;2.71;67.23;98918.16;1758335;81;21548;-61
2021/03/08 01:57:48;;;;;;;14.15;10.53;;;;;;;2.72;67.23;98928.26;1734844;82;21179;-62
2021/03/08 02:00:18;;;;;;;11.75;10.55;;;;;;;2.72;67.26;98920.30;1724307;82;21633;-60
2021/03/08 02:02:46;;;;;;;14.05;10.78;;;;;;;2.71;67.28;98906.20;1749710;82;21184;-61
2021/03/08 02:05:17;;;;;;;11.65;10.48;;;;;;;2.71;67.33;98922.12;1731437;82;21152;-60
2021/03/08 02:07:45;;;;;;;15.35;10.58;;;;;;;2.72;67.33;98921.62;1731630;82;21555;-61
2021/03/08 02:10:15;;;;;;;14.33;10.75;;;;;;;2.72;67.33;98918.97;1726025;82;21660;-60
2021/03/08 02:13:07;;;;;;;13.38;10.13;;;;;;;2.72;67.35;98902.53;1733274;82;21626;-60
2021/03/08 02:16:03;;;;;;;16.23;10.23;;;;;;;2.73;67.40;98916.62;1749689;81;21360;-61
2021/03/08 02:19:11;;;;;;;14.58;10.98;;;;;;;2.75;67.38;98916.68;1731356;82;21197;-60
2021/03/08 02:22:26;;;;;;;10.70;9.55;;;;;;;2.73;67.47;98925.39;1702163;84;21669;-60
2021/03/08 02:25:09;;;;;;;;;;;;;;;2.71;67.57;98912.02;1704721;84;21503;-60
2021/03/08 02:27:54;;;;;;;16.87;10.43;;;;;;;2.70;67.62;98921.02;1702128;84;20247;-62
2021/03/08 02:30:40;;;;;;;14.43;10.38;;;;;;;2.70;67.64;98915.70;1718808;82;21236;-60
2021/03/08 02:33:10;;;;;;;11.85;9.08;;;;;;;2.70;67.68;98913.05;1724555;82;21181;-59
2021/03/08 02:35:42;;;;;;;15.58;12.05;;;;;;;2.72;67.66;98924.28;1722073;82;21180;-61
2021/03/08 02:38:13;;;;;;;9.33;8.43;;;;;;;2.69;67.73;98917.55;1732528;82;21251;-63
2021/03/08 02:40:51;;;;;;;12.53;10.40;;;;;;;2.69;67.79;98910.09;1782030;80;21127;-60
2021/03/08 02:43:24;;;;;;;15.50;10.60;;;;;;;2.69;67.81;98924.18;1765792;80;21344;-61
2021/03/08 02:45:52;;;;;;;13.50;10.10;;;;;;;2.70;67.81;98914.38;1731777;82;21671;-61
2021/03/08 02:48:20;;;;;;;13.70;11.08;;;;;;;2.67;67.90;98916.97;1741426;81;21602;-60
2021/03/08 02:50:49;;;;;;;14.15;11.25;;;;;;;2.65;67.97;98919.02;1758417;81;21623;-60
2021/03/08 02:53:16;;;;;;;15.38;10.88;;;;;;;2.63;68.02;98903.33;1714039;82;21610;-62
2021/03/08 02:55:57;;;;;;;13.10;11.75;;;;;;;2.62;68.11;98903.53;1749718;82;21267;-61
2021/03/08 02:58:25;;;;;;;13.70;11.50;;;;;;;2.63;68.12;98904.66;1730522;82;21603;-60
2021/03/08 03:00:54;;;;;;;15.35;10.72;;;;;;;2.62;68.21;98907.52;1679534;82;21220;-60
2021/03/08 03:03:23;;;;;;;15.48;11.48;;;;;;;2.62;68.43;98902.20;1731292;82;21204;-61
2021/03/08 03:05:51;;;;;;;16.65;11.68;;;;;;;2.61;68.58;98906.70;1731609;82;21136;-61
2021/03/08 03:08:20;;;;;;;13.22;10.00;;;;;;;2.61;69.03;98911.19;1731552;82;21439;-61
2021/03/08 03:10:47;;;;;;;11.08;8.95;;;;;;;2.60;69.46;98910.37;1731000;82;21681;-62
2021/03/08 03:13:15;;;;;;;16.15;11.57;;;;;;;2.56;70.13;98905.21;1784016;80;21121;-59
2021/03/08 03:15:42;;;;;;;12.15;10.10;;;;;;;2.52;70.45;98910.66;1748366;81;21191;-60
2021/03/08 03:18:10;;;;;;;16.95;12.05;;;;;;;2.51;71.31;98920.16;1706109;82;21123;-61
2021/03/08 03:20:39;;;;;;;14.47;10.80;;;;;;;2.48;71.51;98920.59;1713732;82;21404;-61
2021/03/08 03:23:08;;;;;;;16.20;11.60;;;;;;;2.44;72.01;98906.96;1704283;84;21183;-60
2021/03/08 03:25:36;;;;;;;13.28;10.58;;;;;;;2.40;72.41;98916.36;1686614;85;21639;-60
2021/03/08 03:28:05;;;;;;;17.90;12.55;;;;;;;2.35;73.08;98925.47;1704286;84;21601;-60
2021/03/08 03:30:33;;;;;;;15.33;10.83;;;;;;;2.30;73.79;98916.56;1679447;83;21121;-60
2021/03/08 03:33:02;;;;;;;15.70;11.90;;;;;;;2.24;74.32;98928.02;1719806;82;21395;-60
2021/03/08 03:35:30;;;;;;;15.72;12.33;;;;;;;2.17;74.69;98908.98;1719759;83;21152;-59
2021/03/08 03:37:57;;;;;;;18.43;14.53;;;;;;;2.14;75.09;98909.42;1715967;83;21200;-59
2021/03/08 03:40:25;;;;;;;19.27;11.40;;;;;;;2.12;75.31;98906.67;1727088;82;21204;-60
2021/03/08 03:42:54;;;;;;;14.70;11.63;;;;;;;2.08;75.56;98920.88;1666692;86;21137;-60
2021/03/08 03:45:23;;;;;;;16.57;12.90;;;;;;;2.07;75.61;98911.80;1664263;86;21398;-61
2021/03/08 03:47:51;;;;;;;19.50;14.23;;;;;;;2.05;75.74;98916.53;1691059;83;21231;-61
2021/03/08 03:50:21;;;;;;;17.35;12.90;;;;;;;2.04;75.69;98911.73;1692269;84;21171;-61
2021/03/08 03:52:48;;;;;;;14.80;12.17;;;;;;;2.05;75.80;98917.34;1720382;83;21617;-61
2021/03/08 03:55:19;;;;;;;18.02;12.53;;;;;;;2.05;75.75;98916.02;1721096;82;21196;-61
2021/03/08 03:58:12;;;;;;;17.23;13.17;;;;;;;2.06;75.74;98916.29;1721290;83;22300;-61
2021/03/08 04:01:15;;;;;;;13.58;10.53;;;;;;;2.07;75.73;98905.98;1732019;81;21226;-61
2021/03/08 04:04:03;;;;;;;17.70;13.32;;;;;;;2.11;75.86;98926.29;1733429;82;21642;-60
2021/03/08 04:06:47;;;;;;;17.47;13.63;;;;;;;2.08;75.93;98926.70;1711609;83;21187;-62
2021/03/08 04:09:18;;;;;;;17.87;11.87;;;;;;;2.05;76.05;98910.72;1731237;82;21178;-60
2021/03/08 04:11:46;;;;;;;14.87;13.10;;;;;;;2.04;76.17;98911.73;1713794;83;21676;-61
2021/03/08 04:14:18;;;;;;;14.30;12.17;;;;;;;2.03;76.24;98917.24;1699108;83;21175;-61
2021/03/08 04:16:49;;;;;;;17.13;11.00;;;;;;;2.04;76.35;98913.05;1693043;84;21630;-60
2021/03/08 04:19:21;;;;;;;13.80;11.13;;;;;;;2.04;76.80;98909.59;1693127;84;21144;-62
2021/03/08 04:21:49;;;;;;;17.90;14.27;;;;;;;2.00;77.47;98915.03;1674907;83;21223;-62
2021/03/08 04:24:16;;;;;;;15.53;13.20;;;;;;;1.95;77.88;98913.53;1666235;84;21408;-62
2021/03/08 04:26:45;;;;;;;16.37;12.07;;;;;;;1.92;78.43;98914.75;1692973;84;21195;-61
2021/03/08 04:29:12;;;;;;;18.47;13.77;;;;;;;1.89;78.79;98915.19;1693043;84;21179;-60
2021/03/08 04:31:41;;;;;;;14.00;11.57;;;;;;;1.88;79.16;98918.04;1712234;83;21952;-62
2021/03/08 04:34:09;;;;;;;14.53;11.40;;;;;;;1.87;79.77;98915.90;1721956;83;21136;-61
2021/03/08 04:36:37;;;;;;;12.73;10.33;;;;;;;1.84;80.03;98922.15;1721897;82;21852;-59
2021/03/08 04:39:05;;;;;;;21.13;13.67;;;;;;;1.81;80.45;98920.75;1721927;83;21617;-61
2021/03/08 04:41:32;;;;;;;23.37;15.50;;;;;;;1.80;80.69;98920.44;1704654;82;21573;-61
2021/03/08 04:44:01;;;;;;;15.33;13.30;;;;;;;1.77;81.07;98915.58;1706956;83;21207;-63
2021/03/08 04:46:30;;;;;;;24.27;15.70;;;;;;;1.76;81.20;98915.27;1667811;84;21154;-62
2021/03/08 04:48:59;;;;;;;18.60;14.03;;;;;;;1.74;81.30;98916.80;1693096;84;21617;-62
2021/03/08 04:51:28;;;;;;;19.67;14.20;;;;;;;1.77;81.41;98917.41;1682932;83;20989;-61
2021/03/08 04:53:55;;;;;;;24.03;15.97;;;;;;;1.80;81.51;98916.97;1695385;83;21641;-63
2021/03/08 04:56:25;;;;;;;18.03;14.83;;;;;;;1.83;81.54;98912.05;1720705;83;21191;-61
2021/03/08 04:58:52;;;;;;;16.27;12.53;;;;;;;1.86;81.59;98919.59;1695462;83;21204;-63
2021/03/08 05:01:21;;;;;;;20.03;13.77;;;;;;;1.87;81.54;98919.88;1707668;82;21217;-61
2021/03/08 05:03:49;;;;;;;17.00;12.53;;;;;;;1.89;81.50;98915.70;1693175;83;21629;-62
2021/03/08 05:06:19;;;;;;;16.37;12.93;;;;;;;1.88;81.45;98919.36;1640234;86;21159;-61
2021/03/08 05:08:47;;;;;;;20.30;13.07;;;;;;;1.89;81.35;98919.16;1664961;85;21203;-63
2021/03/08 05:11:14;;;;;;;18.87;12.87;;;;;;;1.86;81.13;98924.09;1677295;83;21140;-62
2021/03/08 05:13:44;;;;;;;18.00;12.97;;;;;;;1.83;81.06;98920.52;1692920;84;21381;-61
2021/03/08 05:16:12;;;;;;;16.93;13.97;;;;;;;1.80;81.09;98931.05;1702999;84;21183;-61
2021/03/08 05:18:40;;;;;;;21.10;15.07;;;;;;;1.78;81.07;98929.11;1709635;82;21213;-61
2021/03/08 05:21:08;;;;;;;19.57;14.43;;;;;;;1.74;81.14;98917.30;1728154;82;21036;-62
2021/03/08 05:23:36;;;;;;;17.33;12.03;;;;;;;1.72;81.24;98932.11;1708881;84;21127;-62
2021/03/08 05:26:04;;;;;;;19.33;13.50;;;;;;;1.74;81.30;98942.48;1708878;84;21209;-61
2021/03/08 05:28:33;;;;;;;16.90;13.50;;;;;;;1.74;81.45;98947.78;1708878;84;21587;-62
2021/03/08 05:31:01;;;;;;;15.63;11.90;;;;;;;1.69;81.61;98941.80;1717069;82;21051;-62
2021/03/08 05:33:30;;;;;;;16.07;11.97;;;;;;;1.68;81.90;98952.59;1752158;81;21071;-61
2021/03/08 05:35:59;;;;;;;25.77;18.77;;;;;;;1.68;82.08;98956.57;1751626;81;21162;-60
2021/03/08 05:38:31;;;;;;;14.23;11.53;;;;;;;1.65;82.40;98957.81;1751511;81;21271;-62
2021/03/08 05:41:09;;;;;;;14.77;10.90;;;;;;;1.63;82.51;98953.23;1758105;80;21044;-62
2021/03/08 05:43:37;;;;;;;14.50;10.00;;;;;;;1.62;82.57;98980.78;1782765;80;21592;-61
2021/03/08 05:46:11;;;;;;;10.87;9.20;;;;;;;1.55;80.88;98976.50;1782627;80;21644;-62
2021/03/08 05:49:20;;;;;;;12.53;8.57;;;;;;;1.53;80.95;98986.52;1782567;80;21138;-62
2021/03/08 05:52:04;;;;;;;11.03;8.07;;;;;;;1.49;80.13;99001.17;1778928;80;21403;-61
2021/03/08 05:54:57;;;;;;;14.40;7.77;;;;;;;1.41;79.49;98987.66;1730607;81;21150;-63
2021/03/08 05:57:35;;;;;;;12.25;7.97;;;;;;;1.39;78.93;99007.45;1764972;81;21165;-63
2021/03/08 06:00:31;;;;;;;13.03;7.70;;;;;;;1.36;78.48;99006.02;1767035;80;21105;-61
2021/03/08 06:03:35;;;;;;;6.97;4.53;;;;;;;1.36;77.87;99011.81;1751499;81;21151;-61
2021/03/08 06:06:22;;;;;;;6.75;4.78;;;;;;;1.31;76.37;99025.69;1751705;81;22399;-61
2021/03/08 06:09:21;;;;;;;6.47;4.03;;;;;;;1.26;75.53;99028.13;1757452;80;21004;-62
2021/03/08 06:12:10;;;;;;;4.43;4.00;;;;;;;1.23;75.54;99029.88;1762333;80;21167;-61
2021/03/08 06:14:46;;;;;;;5.53;3.53;;;;;;;1.19;74.76;99024.19;1770766;80;21262;-61
2021/03/08 06:17:16;;;;;;;4.90;3.37;;;;;;;1.14;74.51;99022.67;1770508;80;21136;-63
2021/03/08 06:19:45;;;;;;;4.33;3.30;;;;;;;1.12;74.16;99031.82;1751895;81;22339;-62
2021/03/08 06:22:14;;;;;;;8.33;4.10;;;;;;;1.10;74.40;99033.37;1779127;80;21191;-62
2021/03/08 06:24:44;;;;;;;4.13;3.17;;;;;;;1.06;73.23;99052.48;1782828;80;21100;-62
2021/03/08 06:27:14;;;;;;;5.87;2.83;;;;;;;1.07;73.55;99054.94;1782810;80;21148;-62
2021/03/08 06:29:43;;;;;;;4.13;2.50;;;;;;;1.08;73.16;99052.61;1782533;80;21120;-61
2021/03/08 06:32:11;;;;;;;8.17;4.90;;;;;;;1.07;72.96;99052.80;1755933;80;21181;-63
2021/03/08 06:34:40;;;;;;;5.43;2.60;;;;;;;1.06;73.31;99049.84;1751831;80;21218;-62
2021/03/08 06:37:11;;;;;;;3.10;2.77;;;;;;;1.06;73.34;99056.46;1764228;80;20996;-62
2021/03/08 06:39:44;;;;;;;3.67;2.20;;;;;;;1.07;73.43;99066.04;1697727;84;21230;-62
2021/03/08 06:42:17;;;;;;;6.15;2.92;;;;;;;1.05;73.33;99059.64;1703772;82;21156;-60
2021/03/08 06:44:48;;;;;;;12.20;6.40;;;;;;;1.08;73.52;99055.76;1694526;84;21210;-61
2021/03/08 06:47:18;;;;;;;4.77;2.37;;;;;;;1.07;73.35;99057.59;1732709;82;21158;-61
2021/03/08 06:49:46;;;;;;;4.60;2.67;;;;;;;1.06;72.46;99053.30;1698022;84;21206;-60
2021/03/08 06:52:17;;;;;;;5.20;3.50;;;;;;;1.08;71.61;99070.32;1714362;82;21093;-62
2021/03/08 06:55:01;;;;;;;6.77;3.03;;;;;;;1.08;71.32;99084.38;1719878;82;21145;-62
2021/03/08 06:57:30;;;;;;;3.10;2.15;;;;;;;1.06;70.05;99073.67;1691874;83;21312;-62
2021/03/08 07:00:00;;;;;;;3.63;1.97;;;;;;;1.03;69.39;99074.09;1725484;82;21717;-62
2021/03/08 07:02:46;;;;;;;3.33;1.60;;;;;;;1.00;69.47;99081.94;1731830;82;21036;-62
2021/03/08 07:05:28;;;;;;;3.03;2.53;;;;;;;1.01;69.20;99066.88;1735010;82;21540;-65
2021/03/08 07:08:00;;;;;;;3.97;2.10;;;;;;;1.02;69.26;99072.45;1714184;82;21109;-61
2021/03/08 07:10:40;;;;;;;4.87;2.40;;;;;;;1.02;68.66;99080.39;1709281;82;21187;-61
2021/03/08 07:13:10;;;;;;;3.63;2.20;;;;;;;1.04;68.68;99070.43;1726275;82;21187;-66
2021/03/08 07:16:01;;;;;;;2.50;1.57;;;;;;;1.10;68.84;99055.87;1714648;82;21594;-62
2021/03/08 07:18:29;;;;;;;2.53;2.23;;;;;;;1.13;68.46;99059.42;1763679;81;21124;-63
2021/03/08 07:21:19;;;;;;;4.53;2.40;;;;;;;1.12;68.10;99050.35;1764627;80;21210;-61
2021/03/08 07:23:49;;;;;;;3.23;1.90;;;;;;;1.13;67.60;99062.58;1761491;80;21379;-62
2021/03/08 07:26:22;;;;;;;2.83;2.17;;;;;;;1.16;67.59;99068.28;1757792;81;21076;-63
2021/03/08 07:29:15;;;;;;;2.50;2.02;;;;;;;1.21;67.42;99078.25;1760553;80;21155;-64
2021/03/08 07:31:45;;;;;;;;;;;;;;;1.23;66.82;99084.99;1768598;80;21183;-64
2021/03/08 07:34:15;;;;;;;2.50;1.63;;;;;;;1.23;66.31;99079.70;1753136;80;20229;-63
2021/03/08 07:36:47;;;;;;;1.77;1.47;;;;;;;1.22;64.94;99086.52;1782341;80;21430;-61
2021/03/08 07:39:17;;;;;;;2.47;1.30;;;;;;;1.18;64.41;99078.17;1765378;80;21188;-63
2021/03/08 07:42:04;;;;;;;2.90;1.40;;;;;;;1.16;63.51;99088.64;1766473;80;21588;-64
2021/03/08 07:44:32;;;;;;;1.93;1.70;;;;;;;1.06;62.15;99104.12;1773138;80;21659;-61
2021/03/08 07:47:17;;;;;;;2.47;1.80;;;;;;;0.99;62.71;99088.75;1783229;80;21187;-62
2021/03/08 07:49:46;;;;;;;1.63;1.33;;;;;;;0.94;63.00;99097.81;1776312;80;21596;-63
2021/03/08 07:52:17;;;;;;;4.80;1.80;;;;;;;0.90;63.38;99081.52;1758289;80;21143;-63
2021/03/08 07:55:01;;;;;;;1.60;1.50;;;;;;;0.91;63.57;99078.37;1760040;80;21127;-63
2021/03/08 07:57:30;;;;;;;4.73;2.17;;;;;;;0.97;63.77;99082.33;1758410;80;21036;-64
2021/03/08 08:00:00;;;;;;;1.43;1.33;;;;;;;1.02;62.53;99116.95;1776655;80;21132;-63
2021/03/08 08:02:28;;;;;;;1.20;1.10;;;;;;;1.05;60.90;99091.92;1731273;80;21226;-63
2021/03/08 08:04:57;;;;;;;1.27;1.13;;;;;;;1.12;59.98;99078.98;1777574;80;21623;-63
2021/03/08 08:07:26;;;;;;;4.47;2.23;;;;;;;1.15;58.81;99073.26;1759539;80;21640;-61
2021/03/08 08:09:54;;;;;;;3.20;1.07;;;;;;;1.22;58.98;99099.75;1777975;80;21068;-61
2021/03/08 08:12:23;;;;;;;1.43;1.30;;;;;;;1.27;58.43;99082.23;1788075;80;21140;-64
2021/03/08 08:14:51;;;;;;;1.17;1.10;;;;;;;1.33;58.08;99093.84;1753079;81;21419;-63
2021/03/08 08:17:21;;;;;;;2.87;1.30;;;;;;;1.39;57.23;99073.14;1723185;82;22456;-61
2021/03/08 08:19:49;;;;;;;1.60;1.47;;;;;;;1.42;56.57;99074.58;1763734;80;21602;-61
2021/03/08 08:22:23;;;;;;;2.07;1.97;;;;;;;1.47;57.24;99095.47;1737308;81;21574;-63
2021/03/08 08:24:53;;;;;;;1.17;1.07;;;;;;;1.49;56.97;99097.89;1725885;83;21206;-63
2021/03/08 08:27:23;;;;;;;1.20;1.10;;;;;;;1.52;56.52;99093.52;1728688;83;22145;-67
2021/03/08 08:29:50;;;;;;;1.90;1.80;;;;;;;1.44;54.06;99088.45;1724222;83;21199;-63
2021/03/08 08:32:19;;;;;;;0.80;0.80;;;;;;;1.37;53.61;99094.25;1717705;82;21633;-64
2021/03/08 08:34:51;;;;;;;2.27;0.97;;;;;;;1.29;52.79;99117.30;1717577;83;20960;-63
2021/03/08 08:37:24;;;;;;;0.90;0.90;;;;;;;1.24;52.59;99087.95;1721979;82;21107;-64
2021/03/08 08:39:57;;;;;;;1.57;0.93;;;;;;;1.28;53.25;99088.34;1724362;81;22224;-63
2021/03/08 08:42:27;;;;;;;2.40;0.93;;;;;;;1.33;52.93;99085.91;1725388;83;21198;-64
2021/03/08 08:44:57;;;;;;;1.20;1.03;;;;;;;1.39;52.52;99098.30;1725012;83;21186;-61
2021/03/08 08:47:33;;;;;;;3.47;1.60;;;;;;;1.48;52.33;99076.41;1725083;83;21648;-61
2021/03/08 08:50:07;;;;;;;1.93;1.30;;;;;;;1.57;51.40;99094.53;1696983;83;21216;-61
2021/03/08 08:52:56;;;;;;;2.50;1.03;;;;;;;1.62;51.09;99092.59;1702432;83;21174;-63
2021/03/08 08:55:41;;;;;;;1.70;1.60;;;;;;;1.72;51.44;99082.38;1695993;83;21229;-64
2021/03/08 08:58:30;;;;;;;1.70;1.47;;;;;;;1.80;51.44;99080.00;1694035;84;22266;-62
2021/03/08 09:01:19;;;;;;;1.40;1.13;;;;;;;1.88;50.50;99083.73;1727931;81;21517;-61
2021/03/08 09:04:13;;;;;;;1.00;1.00;;;;;;;1.90;49.12;99112.20;1723273;83;21229;-61
2021/03/08 09:06:51;;;;;;;1.07;1.03;;;;;;;1.90;49.08;99126.27;1727357;82;22798;-63
2021/03/08 09:09:33;;;;;;;2.87;1.50;;;;;;;1.91;49.04;99097.41;1730538;81;21241;-62
2021/03/08 09:12:08;;;;;;;1.80;1.03;;;;;;;1.95;48.95;99107.08;1705716;83;21195;-62
2021/03/08 09:15:01;;;;;;;2.05;1.60;;;;;;;1.97;48.21;99101.05;1730301;81;21165;-62
2021/03/08 09:17:32;;;;;;;1.10;1.10;;;;;;;1.96;48.66;99111.38;1748658;80;21177;-63
2021/03/08 09:20:08;;;;;;;1.20;1.10;;;;;;;1.96;48.60;99118.00;1752203;81;21431;-64
2021/03/08 09:22:37;;;;;;;;;;;;;;;2.01;48.04;99119.52;1759660;81;21132;-62
2021/03/08 09:25:15;;;;;;;1.70;1.10;;;;;;;1.99;47.46;99113.09;1758803;81;20218;-63
2021/03/08 09:28:01;;;;;;;1.20;1.10;;;;;;;1.98;47.36;99142.45;1764400;80;21144;-63
2021/03/08 09:30:36;;;;;;;1.50;1.30;;;;;;;1.97;47.57;99121.75;1772154;80;21203;-65
2021/03/08 09:33:06;;;;;;;0.97;0.97;;;;;;;1.99;47.49;99134.30;1773676;80;21425;-62
2021/03/08 09:35:42;;;;;;;1.43;1.20;;;;;;;1.99;47.37;99116.25;1766494;80;21214;-64
2021/03/08 09:38:20;;;;;;;2.13;1.47;;;;;;;2.05;47.14;99104.81;1782571;80;21215;-63
2021/03/08 09:40:55;;;;;;;6.13;1.60;;;;;;;2.13;46.59;99108.55;1770161;80;21132;-64
2021/03/08 09:43:33;;;;;;;1.83;1.00;;;;;;;2.24;46.26;99103.92;1775306;80;21122;-65
2021/03/08 09:46:08;;;;;;;1.67;1.27;;;;;;;2.26;45.27;99105.02;1767658;80;21272;-62
2021/03/08 09:48:38;;;;;;;1.70;1.60;;;;;;;2.26;45.87;99125.73;1752034;81;21025;-62
2021/03/08 09:51:15;;;;;;;4.73;1.83;;;;;;;2.24;46.29;99140.25;1757996;80;21183;-64
2021/03/08 09:53:57;;;;;;;1.30;1.20;;;;;;;2.27;45.06;99136.66;1762384;80;21154;-63
2021/03/08 09:56:26;;;;;;;2.83;1.43;;;;;;;2.30;44.01;99128.30;1761134;80;21124;-64
2021/03/08 09:59:04;;;;;;;2.90;1.10;;;;;;;2.35;44.27;99111.74;1783255;80;21417;-63
2021/03/08 10:01:35;;;;;;;2.57;1.50;;;;;;;2.40;42.99;99128.63;1762886;80;21207;-64
2021/03/08 10:04:05;;;;;;;4.33;2.73;;;;;;;2.38;42.12;99112.13;1776170;80;21037;-61
2021/03/08 10:06:35;;;;;;;1.87;1.30;;;;;;;2.42;42.60;99123.13;1751116;81;21577;-63
2021/03/08 10:09:20;;;;;;;2.53;1.20;;;;;;;2.53;42.64;99100.73;1757365;80;21147;-66
2021/03/08 10:11:48;;;;;;;2.08;1.27;;;;;;;2.55;42.26;99124.37;1756382;80;21392;-62
2021/03/08 10:14:24;;;;;;;2.93;1.43;;;;;;;2.57;43.02;99114.38;1751987;80;21196;-61
2021/03/08 10:17:09;;;;;;;1.50;1.40;;;;;;;2.60;42.98;99124.05;1746984;80;21216;-60
2021/03/08 10:19:38;;;;;;;1.23;1.13;;;;;;;2.62;43.17;99115.88;1729103;81;21170;-61
2021/03/08 10:22:06;;;;;;;3.47;1.40;;;;;;;2.65;41.94;99122.09;1748978;81;21125;-62
2021/03/08 10:24:38;;;;;;;0.97;0.97;;;;;;;2.64;41.81;99114.63;1742786;81;22344;-64
2021/03/08 10:29:47;;;;;;;2.00;1.33;;;;;;;2.75;41.61;99105.18;1879095;76;22689;-64
2021/03/08 10:32:15;;;;;;;1.47;1.35;;;;;;;2.77;41.13;99146.13;1798807;77;20978;-62
2021/03/08 10:34:43;;;;;;;2.10;1.47;;;;;;;2.84;41.39;99102.56;1838853;77;21458;-63
2021/03/08 10:37:19;;;;;;;1.62;1.30;;;;;;;2.92;41.28;99114.28;1839512;77;20981;-61
2021/03/08 10:39:49;;;;;;;1.47;1.35;;;;;;;2.96;41.31;99094.23;1829746;77;21042;-61
2021/03/08 10:42:21;;;;;;;2.90;2.70;;;;;;;2.99;41.33;99101.75;1833497;77;20998;-62
2021/03/08 10:44:48;;;;;;;7.40;1.60;;;;;;;3.07;41.21;99092.19;1838022;77;20974;-62
2021/03/08 10:47:17;;;;;;;1.17;1.07;;;;;;;3.15;40.30;99103.59;1821034;77;21254;-61
2021/03/08 10:49:51;;;;;;;2.05;1.65;;;;;;;3.14;39.12;99133.83;1820879;78;21606;-62
2021/03/08 10:52:21;;;;;;;1.25;0.90;;;;;;;3.05;39.49;99103.55;1820879;78;21030;-63
2021/03/08 10:54:49;;;;;;;1.42;1.32;;;;;;;3.00;39.56;99108.70;1820763;78;21106;-61
2021/03/08 10:57:17;;;;;;;1.35;1.10;;;;;;;3.02;39.64;99112.48;1820794;78;21184;-62
2021/03/08 10:59:48;;;;;;;1.65;1.15;;;;;;;3.05;39.99;99102.73;1800912;78;21542;-60
2021/03/08 11:02:17;;;;;;;1.85;1.25;;;;;;;3.07;39.67;99121.91;1820892;78;21622;-62
2021/03/08 11:04:48;;;;;;;1.37;1.12;;;;;;;3.06;40.21;99109.69;1820846;78;21110;-63
2021/03/08 11:07:32;;;;;;;1.52;1.42;;;;;;;3.06;40.46;99128.28;1818746;78;21126;-62
2021/03/08 11:10:01;;;;;;;3.45;1.52;;;;;;;3.05;40.51;99118.16;1820672;78;21193;-63
2021/03/08 11:12:28;;;;;;;2.45;1.50;;;;;;;3.04;40.45;99132.98;1820858;78;21374;-61
2021/03/08 11:14:58;;;;;;;1.42;1.32;;;;;;;2.97;40.14;99133.02;1820786;78;21154;-61
2021/03/08 11:17:41;;;;;;;3.50;1.70;;;;;;;2.90;40.53;99118.98;1821011;78;21496;-62
2021/03/08 11:20:15;;;;;;;;;;;;;;;2.88;40.91;99100.28;1823495;78;21152;-63
2021/03/08 11:22:58;;;;;;;;;;;;;;;2.90;41.03;99114.18;1823622;78;20261;-63
2021/03/08 11:25:43;;;;;;;2.33;1.40;;;;;;;2.88;40.95;99105.60;1820922;78;22225;-63
2021/03/08 11:28:13;;;;;;;3.15;1.50;;;;;;;2.85;41.19;99099.40;1822639;78;21046;-63
2021/03/08 11:30:49;;;;;;;6.30;2.05;;;;;;;2.82;41.27;99099.33;1829819;78;21166;-64
2021/03/08 11:33:18;;;;;;;2.05;1.85;;;;;;;2.83;41.33;99096.16;1829787;78;20963;-63
2021/03/08 11:35:51;;;;;;;3.17;1.65;;;;;;;2.82;41.59;99111.28;1829750;78;21160;-62
2021/03/08 11:38:24;;;;;;;2.53;1.77;;;;;;;2.79;41.51;99102.91;1830101;78;21419;-62
2021/03/08 11:40:52;;;;;;;1.35;1.25;;;;;;;2.79;41.51;99102.91;1829224;78;21618;-62
2021/03/08 11:43:24;;;;;;;3.25;2.85;;;;;;;2.79;42.05;99104.23;1829208;78;21633;-61
2021/03/08 11:45:52;;;;;;;1.70;1.50;;;;;;;2.82;42.47;99109.95;1829269;78;21161;-61
2021/03/08 11:48:24;;;;;;;1.47;1.30;;;;;;;2.82;42.50;99102.50;1829267;77;21602;-65
2021/03/08 11:50:52;;;;;;;1.87;1.47;;;;;;;2.76;42.87;99104.67;1829151;78;21264;-65
2021/03/08 11:53:20;;;;;;;2.83;1.50;;;;;;;2.71;43.36;99108.48;1829182;78;21165;-62
2021/03/08 11:55:48;;;;;;;2.12;1.90;;;;;;;2.68;43.67;99105.75;1829152;78;21121;-63
2021/03/08 11:58:20;;;;;;;2.65;1.75;;;;;;;2.69;43.87;99112.66;1829213;78;21614;-62
2021/03/08 12:00:47;;;;;;;3.98;1.25;;;;;;;2.64;43.86;99109.83;1829311;78;21088;-65
2021/03/08 12:03:15;;;;;;;2.52;1.45;;;;;;;2.59;44.30;99133.03;1829215;78;22353;-63